Durant, Mississippi
Current Conditions -  °F | °C
As of 5:53 PM on Saturday 25 Oct 2014 (Local Time) from KGWO Reporting Station
Clear Clear  
Wind Chill: 74°   Ceiling: Unl
Heat Index: 74°   Visibility: 10mi
Dew Point: 65°   Wind: 3mph
Humidity: 73%   Direction: 220°SW
Pressure: 30.04"   Gusts: NA
Location:  33.08°N, 89.85°W
Report Text: KGWO 252253Z AUTO 22003KT 10SM CLR 23/18 A3004 RMK AO2 SLP171 T02330183 TSNO
Loading
Personal Weather Stations






























Interactive Weather Map
Tropical Storm Tracking
New forecast layout! Learn more

10-Day Weather Forecast

Advertisements
Track Severe Weather on mobile